Time;durP1;ratioP1;P1;durP2;ratioP2;P2;SDS_P1;SDS_P2;PMS_P1;PMS_P2;Temp;Humidity;BMP_temperature;BMP_pressure;BME280_temperature;BME280_humidity;BME280_pressure;Samples;Min_cycle;Max_cycle;Signal;HPM_P1;HPM_P2
2021/07/09 07:19:27;;;;;;;;;;;;;;;;;;5071588;22;20015;-51
2021/07/09 07:21:53;;;;;;;;;;;;;;;;;;5070984;28;20227;-52
2021/07/09 07:24:19;;;;;;;;;;;;;;;;;;5071597;28;20321;-57
2021/07/09 07:26:45;;;;;;;;;;;;;;;;;;5072267;28;19943;-55
2021/07/09 07:29:11;;;;;;;;;;;;;;;;;;5076066;28;19958;-55
2021/07/09 07:31:37;;;;;;;;;;;;;;;;;;5061766;28;19919;-57
2021/07/09 07:34:03;;;;;;;;;;;;;;;;;;5072081;28;20270;-56
2021/07/09 07:36:29;;;;;;;;;;;;;;;;;;5064155;28;20008;-56
2021/07/09 07:38:55;;;;;;;;;;;;;;;;;;5071573;28;19946;-55
2021/07/09 07:41:21;;;;;;;;;;;;;;;;;;5054076;28;19904;-55
2021/07/09 07:43:47;;;;;;;;;;;;;;;;;;5070948;28;19916;-54
2021/07/09 07:46:13;;;;;;;;;;;;;;;;;;5067383;28;19913;-50
2021/07/09 07:48:39;;;;;;;;;;;;;;;;;;5072419;28;19919;-51
2021/07/09 07:51:05;;;;;;;;;;;;;;;;;;5081713;28;20299;-51
2021/07/09 07:53:34;;;;;;;;;;;;;;;;;;5080119;28;19904;-55
2021/07/09 07:56:01;;;;;;;;;;;;;;;;;;5076292;28;20348;-51
2021/07/09 07:58:27;;;;;;;;;;;;;;;;;;5072626;28;19939;-52
2021/07/09 08:00:53;;;;;;;;;;;;;;;;;;5071279;28;20042;-52
2021/07/09 08:03:18;;;;;;;;;;;;;;;;;;5058284;28;20034;-52
2021/07/09 08:05:44;;;;;;;;;;;;;;;;;;5070143;28;19905;-54
2021/07/09 08:08:10;;;;;;;;;;;;;;;;;;5072285;28;19954;-52
2021/07/09 08:10:36;;;;;;;;;;;;;;;;;;5052612;28;19912;-50
2021/07/09 08:13:02;;;;;;;;;;;;;;;;;;5080477;28;20386;-54
2021/07/09 08:15:28;;;;;;;;;;;;;;;;;;5072290;28;20242;-55
2021/07/09 08:17:54;;;;;;;;;;;;;;;;;;5070673;28;20065;-52
2021/07/09 08:20:20;;;;;;;;;;;;;;;;;;5074605;28;20057;-51
2021/07/09 08:22:48;;;;;;;;;;;;;;;;;;5061889;28;19912;-55
2021/07/09 08:25:13;;;;;;;;;;;;;;;;;;5069089;28;19978;-59
2021/07/09 08:27:39;;;;;;;;;;;;;;;;;;5070137;28;19967;-61
2021/07/09 08:30:05;;;;;;;;;;;;;;;;;;5068821;28;19947;-53
2021/07/09 08:32:33;;;;;;;;;;;;;;;;;;5068420;28;19932;-55
2021/07/09 08:34:59;;;;;;;;;;;;;;;;;;5060866;28;19908;-57
2021/07/09 08:37:24;;;;;;;;;;;;;;;;;;5078753;28;19991;-53
2021/07/09 08:39:50;;;;;;;;;;;;;;;;;;5069441;28;19916;-51
2021/07/09 08:42:16;;;;;;;;;;;;;;;;;;5068353;28;19962;-58
2021/07/09 08:44:42;;;;;;;;;;;;;;;;;;5083849;28;19916;-54
2021/07/09 08:47:08;;;;;;;;;;;;;;;;;;5069524;28;19958;-56
2021/07/09 08:49:34;;;;;;;;;;;;;;;;;;5069637;28;19995;-49
2021/07/09 08:52:00;;;;;;;;;;;;;;;;;;5069500;28;20465;-56
2021/07/09 08:54:26;;;;;;;;;;;;;;;;;;5070187;28;19986;-52
2021/07/09 08:56:52;;;;;;;;;;;;;;;;;;5069853;28;19912;-52
2021/07/09 08:59:19;;;;;;;;;;;;;;;;;;5070183;28;19911;-52
2021/07/09 09:01:45;;;;;;;;;;;;;;;;;;5069145;28;19908;-54
2021/07/09 09:04:11;;;;;;;;;;;;;;;;;;5077828;28;19908;-52
2021/07/09 09:06:36;;;;;;;;;;;;;;;;;;5083158;28;20049;-53
2021/07/09 09:09:02;;;;;;;;;;;;;;;;;;5070112;28;19947;-52
2021/07/09 09:11:29;;;;;;;;;;;;;;;;;;5068969;28;19919;-53
2021/07/09 09:13:55;;;;;;;;;;;;;;;;;;5069135;28;19908;-53
2021/07/09 09:16:21;;;;;;;;;;;;;;;;;;5069840;28;19912;-52
2021/07/09 09:18:47;;;;;;;;;;;;;;;;;;5069342;28;20324;-53
2021/07/09 09:21:13;;;;;;;;;;;;;;;;;;5050971;28;19904;-52
2021/07/09 09:23:39;;;;;;;;;;;;;;;;;;5070124;28;20348;-52
2021/07/09 09:26:06;;;;;;;;;;;;;;;;;;5070085;28;19928;-52
2021/07/09 09:28:32;;;;;;;;;;;;;;;;;;5070424;28;19917;-51
2021/07/09 09:30:58;;;;;;;;;;;;;;;;;;5070411;28;20414;-50
2021/07/09 09:33:24;;;;;;;;;;;;;;;;;;5070619;28;19912;-52
2021/07/09 09:35:50;;;;;;;;;;;;;;;;;;5069632;28;20344;-54
2021/07/09 09:38:17;;;;;;;;;;;;;;;;;;5052137;28;19919;-54
2021/07/09 09:40:43;;;;;;;;;;;;;;;;;;5070566;28;19904;-54
2021/07/09 09:43:09;;;;;;;;;;;;;;;;;;5070534;28;20436;-55
2021/07/09 09:45:35;;;;;;;;;;;;;;;;;;5070132;28;19951;-53
2021/07/09 09:48:01;;;;;;;;;;;;;;;;;;5051446;28;20312;-55
2021/07/09 09:50:27;;;;;;;;;;;;;;;;;;5069185;28;19912;-55
2021/07/09 09:52:53;;;;;;;;;;;;;;;;;;5052337;28;20046;-51
2021/07/09 09:55:19;;;;;;;;;;;;;;;;;;5069993;28;20337;-56
2021/07/09 09:57:45;;;;;;;;;;;;;;;;;;5051938;28;19915;-52
2021/07/09 10:00:14;;;;;;;;;;;;;;;;;;5070392;28;19916;-49
2021/07/09 10:02:44;;;;;;;;;;;;;;;;;;5070004;28;19905;-47
2021/07/09 10:05:10;;;;;;;;;;;;;;;;;;5051204;28;19908;-54
2021/07/09 10:07:36;;;;;;;;;;;;;;;;;;5051888;28;19967;-56
2021/07/09 10:10:04;;;;;;;;;;;;;;;;;;5069747;28;20251;-55
2021/07/09 10:12:30;;;;;;;;;;;;;;;;;;5070235;28;19908;-56
2021/07/09 10:14:56;;;;;;;;;;;;;;;;;;5069995;28;20343;-52
2021/07/09 10:17:22;;;;;;;;;;;;;;;;;;5069857;28;19913;-53
2021/07/09 10:19:48;;;;;;;;;;;;;;;;;;5053013;28;19908;-49
2021/07/09 10:22:14;;;;;;;;;;;;;;;;;;5050211;28;19904;-51
2021/07/09 10:24:40;;;;;;;;;;;;;;;;;;5063296;28;19912;-59
2021/07/09 10:27:06;;;;;;;;;;;;;;;;;;5049906;28;19904;-51
2021/07/09 10:29:35;;;;;;;;;;;;;;;;;;5049099;28;20306;-51
2021/07/09 10:32:01;;;;;;;;;;;;;;;;;;5050751;28;19916;-55
2021/07/09 10:34:27;;;;;;;;;;;;;;;;;;5046282;28;20327;-56
2021/07/09 10:36:53;;;;;;;;;;;;;;;;;;5044867;28;20317;-57
2021/07/09 10:39:19;;;;;;;;;;;;;;;;;;5043907;28;19951;-57
2021/07/09 10:41:45;;;;;;;;;;;;;;;;;;5033404;28;19905;-56
2021/07/09 10:44:12;;;;;;;;;;;;;;;;;;5064745;28;19955;-56
2021/07/09 10:46:38;;;;;;;;;;;;;;;;;;5057385;28;20015;-55
2021/07/09 10:49:04;;;;;;;;;;;;;;;;;;5051641;28;20012;-55
2021/07/09 10:51:30;;;;;;;;;;;;;;;;;;5051230;28;20226;-57
2021/07/09 10:53:56;;;;;;;;;;;;;;;;;;5052390;28;20257;-54
2021/07/09 10:56:22;;;;;;;;;;;;;;;;;;5052450;28;19915;-54
2021/07/09 10:58:48;;;;;;;;;;;;;;;;;;5052655;28;20306;-55
2021/07/09 11:01:14;;;;;;;;;;;;;;;;;;5051780;28;20261;-54
2021/07/09 11:03:40;;;;;;;;;;;;;;;;;;5050698;28;20000;-55
2021/07/09 11:06:06;;;;;;;;;;;;;;;;;;5035284;28;19959;-54
2021/07/09 11:08:32;;;;;;;;;;;;;;;;;;5062180;28;19975;-55
2021/07/09 11:10:58;;;;;;;;;;;;;;;;;;5051745;28;20058;-54
2021/07/09 11:13:24;;;;;;;;;;;;;;;;;;5052003;28;19904;-55
2021/07/09 11:15:50;;;;;;;;;;;;;;;;;;5052091;28;19936;-53
2021/07/09 11:18:16;;;;;;;;;;;;;;;;;;5053371;28;20021;-54
2021/07/09 11:20:42;;;;;;;;;;;;;;;;;;5050870;28;19912;-55
2021/07/09 11:23:08;;;;;;;;;;;;;;;;;;5051667;28;19916;-53
2021/07/09 11:25:34;;;;;;;;;;;;;;;;;;5051775;28;19905;-54
2021/07/09 11:27:59;;;;;;;;;;;;;;;;;;5051600;28;20003;-55
2021/07/09 11:30:27;;;;;;;;;;;;;;;;;;5051589;28;19995;-57
2021/07/09 11:32:53;;;;;;;;;;;;;;;;;;5050787;28;19919;-55
2021/07/09 11:35:19;;;;;;;;;;;;;;;;;;5044901;28;19908;-54
2021/07/09 11:37:45;;;;;;;;;;;;;;;;;;5050839;28;20082;-54
2021/07/09 11:40:11;;;;;;;;;;;;;;;;;;5051044;28;19924;-54
2021/07/09 11:42:37;;;;;;;;;;;;;;;;;;5051475;28;19993;-53
2021/07/09 11:45:03;;;;;;;;;;;;;;;;;;5050777;28;20252;-54
2021/07/09 11:47:29;;;;;;;;;;;;;;;;;;5051263;28;19916;-54
2021/07/09 11:49:55;;;;;;;;;;;;;;;;;;5050729;28;20020;-53
2021/07/09 11:52:21;;;;;;;;;;;;;;;;;;5050257;28;19947;-54
2021/07/09 11:54:48;;;;;;;;;;;;;;;;;;5051191;28;19924;-55
2021/07/09 11:57:14;;;;;;;;;;;;;;;;;;5050506;28;19905;-56
2021/07/09 11:59:40;;;;;;;;;;;;;;;;;;5050633;28;19912;-56
2021/07/09 12:02:06;;;;;;;;;;;;;;;;;;5050834;28;19967;-53
2021/07/09 12:04:32;;;;;;;;;;;;;;;;;;5050643;28;19905;-57
2021/07/09 12:06:58;;;;;;;;;;;;;;;;;;5032409;28;20371;-56
2021/07/09 12:09:24;;;;;;;;;;;;;;;;;;5050461;28;19952;-57
2021/07/09 12:11:50;;;;;;;;;;;;;;;;;;5046297;28;19956;-57
2021/07/09 12:14:15;;;;;;;;;;;;;;;;;;5051572;28;19904;-56
2021/07/09 12:16:41;;;;;;;;;;;;;;;;;;5050955;28;19904;-57
2021/07/09 12:19:07;;;;;;;;;;;;;;;;;;5050687;28;19960;-57
2021/07/09 12:21:33;;;;;;;;;;;;;;;;;;5031031;28;19952;-58
2021/07/09 12:23:59;;;;;;;;;;;;;;;;;;5051177;28;19912;-59
2021/07/09 12:26:25;;;;;;;;;;;;;;;;;;5050776;28;19982;-58
2021/07/09 12:28:51;;;;;;;;;;;;;;;;;;5051015;28;19944;-60
2021/07/09 12:31:17;;;;;;;;;;;;;;;;;;5050409;28;19909;-62
2021/07/09 12:33:43;;;;;;;;;;;;;;;;;;5048514;28;20011;-58
2021/07/09 12:36:09;;;;;;;;;;;;;;;;;;5048431;28;19940;-53
2021/07/09 12:38:35;;;;;;;;;;;;;;;;;;5050192;28;19915;-57
2021/07/09 12:41:01;;;;;;;;;;;;;;;;;;5050054;28;20346;-54
2021/07/09 12:43:27;;;;;;;;;;;;;;;;;;5042461;28;19912;-54
2021/07/09 12:45:53;;;;;;;;;;;;;;;;;;5038495;28;19904;-52
2021/07/09 12:48:19;;;;;;;;;;;;;;;;;;5050242;28;20049;-56
2021/07/09 12:50:45;;;;;;;;;;;;;;;;;;5032052;28;20325;-49
2021/07/09 12:53:11;;;;;;;;;;;;;;;;;;5048639;28;20399;-49
2021/07/09 12:55:37;;;;;;;;;;;;;;;;;;5049546;28;20549;-53
2021/07/09 12:58:03;;;;;;;;;;;;;;;;;;5051080;28;20007;-51
2021/07/09 13:00:29;;;;;;;;;;;;;;;;;;5050438;28;19944;-49
2021/07/09 13:02:55;;;;;;;;;;;;;;;;;;5050615;28;19912;-47
2021/07/09 13:05:21;;;;;;;;;;;;;;;;;;5050846;28;19905;-48
2021/07/09 13:07:47;;;;;;;;;;;;;;;;;;5050134;28;20003;-47
2021/07/09 13:10:13;;;;;;;;;;;;;;;;;;5050644;28;19963;-50
2021/07/09 13:12:39;;;;;;;;;;;;;;;;;;5050573;28;19905;-58
2021/07/09 13:15:05;;;;;;;;;;;;;;;;;;5049978;28;19963;-51
2021/07/09 13:17:31;;;;;;;;;;;;;;;;;;5052347;28;20007;-54
2021/07/09 13:19:57;;;;;;;;;;;;;;;;;;5052232;28;19908;-54
2021/07/09 13:22:23;;;;;;;;;;;;;;;;;;5056964;28;19905;-49
2021/07/09 13:24:49;;;;;;;;;;;;;;;;;;5060265;28;19904;-56
2021/07/09 13:27:15;;;;;;;;;;;;;;;;;;5062858;28;19915;-56
2021/07/09 13:29:41;;;;;;;;;;;;;;;;;;5058585;28;19967;-55
2021/07/09 13:32:07;;;;;;;;;;;;;;;;;;5058701;28;19916;-58
2021/07/09 13:34:33;;;;;;;;;;;;;;;;;;5043995;28;19960;-53
2021/07/09 13:36:59;;;;;;;;;;;;;;;;;;5052762;28;20272;-56
2021/07/09 13:39:25;;;;;;;;;;;;;;;;;;5056196;28;19915;-49
2021/07/09 13:41:51;;;;;;;;;;;;;;;;;;5053506;28;19991;-50
2021/07/09 13:44:17;;;;;;;;;;;;;;;;;;5049872;28;20317;-54
2021/07/09 13:46:45;;;;;;;;;;;;;;;;;;5049257;28;20011;-55
2021/07/09 13:49:11;;;;;;;;;;;;;;;;;;5049313;28;19963;-57
2021/07/09 13:51:37;;;;;;;;;;;;;;;;;;5049506;28;19935;-55
2021/07/09 13:54:03;;;;;;;;;;;;;;;;;;5049380;28;20357;-58
2021/07/09 13:56:29;;;;;;;;;;;;;;;;;;5049349;28;19984;-59
2021/07/09 13:58:55;;;;;;;;;;;;;;;;;;5048706;28;19940;-59
2021/07/09 14:01:21;;;;;;;;;;;;;;;;;;5056873;28;19952;-56
2021/07/09 14:03:47;;;;;;;;;;;;;;;;;;5031812;28;19991;-51
2021/07/09 14:06:13;;;;;;;;;;;;;;;;;;5049098;28;19904;-50
2021/07/09 14:08:39;;;;;;;;;;;;;;;;;;5051328;28;20402;-55
2021/07/09 14:11:05;;;;;;;;;;;;;;;;;;5053626;28;19908;-51
2021/07/09 14:13:31;;;;;;;;;;;;;;;;;;5053614;28;19905;-55
2021/07/09 14:15:57;;;;;;;;;;;;;;;;;;5052602;28;20337;-61
2021/07/09 14:18:23;;;;;;;;;;;;;;;;;;5053670;28;19920;-57
2021/07/09 14:20:49;;;;;;;;;;;;;;;;;;5052670;28;20008;-53
2021/07/09 14:23:15;;;;;;;;;;;;;;;;;;5052686;28;20635;-55
2021/07/09 14:25:41;;;;;;;;;;;;;;;;;;5054002;28;19905;-57
2021/07/09 14:28:07;;;;;;;;;;;;;;;;;;5053927;28;19958;-56
2021/07/09 14:30:33;;;;;;;;;;;;;;;;;;5053457;28;20278;-58
2021/07/09 14:32:59;;;;;;;;;;;;;;;;;;5052850;28;19909;-56
2021/07/09 14:35:25;;;;;;;;;;;;;;;;;;5042461;28;19924;-58
2021/07/09 14:37:51;;;;;;;;;;;;;;;;;;5052944;28;20401;-56
2021/07/09 14:40:22;;;;;;;;;;;;;;;;;;5035869;28;20343;-58
2021/07/09 14:42:48;;;;;;;;;;;;;;;;;;5040677;28;19927;-55
2021/07/09 14:45:14;;;;;;;;;;;;;;;;;;5053946;28;20288;-59
2021/07/09 14:47:40;;;;;;;;;;;;;;;;;;5052872;28;20248;-59
2021/07/09 14:50:06;;;;;;;;;;;;;;;;;;5033747;28;19912;-53
2021/07/09 14:52:32;;;;;;;;;;;;;;;;;;5052536;28;19991;-57
2021/07/09 14:54:58;;;;;;;;;;;;;;;;;;5053481;28;19916;-59
2021/07/09 14:57:24;;;;;;;;;;;;;;;;;;5052145;28;20011;-54
2021/07/09 14:59:50;;;;;;;;;;;;;;;;;;5051786;28;19916;-55
2021/07/09 15:02:16;;;;;;;;;;;;;;;;;;5048489;28;19944;-54
2021/07/09 15:04:43;;;;;;;;;;;;;;;;;;5052587;28;19905;-53
2021/07/09 15:07:09;;;;;;;;;;;;;;;;;;5052121;28;19915;-51
2021/07/09 15:09:36;;;;;;;;;;;;;;;;;;5052429;28;19912;-53
2021/07/09 15:12:02;;;;;;;;;;;;;;;;;;5052635;28;20341;-54
2021/07/09 15:14:28;;;;;;;;;;;;;;;;;;5051714;28;19915;-52
2021/07/09 15:16:54;;;;;;;;;;;;;;;;;;5052151;28;20518;-51
2021/07/09 15:19:20;;;;;;;;;;;;;;;;;;5051572;28;19921;-55
2021/07/09 15:21:46;;;;;;;;;;;;;;;;;;5050910;28;19931;-50
2021/07/09 15:24:12;;;;;;;;;;;;;;;;;;5051525;28;19944;-56
2021/07/09 15:26:38;;;;;;;;;;;;;;;;;;5052033;28;19954;-57
2021/07/09 15:29:04;;;;;;;;;;;;;;;;;;5051613;28;19963;-57
2021/07/09 15:31:30;;;;;;;;;;;;;;;;;;5052155;28;20344;-60
2021/07/09 15:33:56;;;;;;;;;;;;;;;;;;5050923;28;19904;-61
2021/07/09 15:36:22;;;;;;;;;;;;;;;;;;5041948;28;20364;-56
2021/07/09 15:38:48;;;;;;;;;;;;;;;;;;5051364;28;19943;-58
2021/07/09 15:41:14;;;;;;;;;;;;;;;;;;5052116;28;19912;-60
2021/07/09 15:43:40;;;;;;;;;;;;;;;;;;5052251;28;19916;-58
2021/07/09 15:46:05;;;;;;;;;;;;;;;;;;5052127;28;19905;-59
2021/07/09 15:48:31;;;;;;;;;;;;;;;;;;5042484;28;20413;-54
2021/07/09 15:50:57;;;;;;;;;;;;;;;;;;5051064;28;20010;-61
2021/07/09 15:53:23;;;;;;;;;;;;;;;;;;5047313;28;19916;-50
2021/07/09 15:55:49;;;;;;;;;;;;;;;;;;5051577;28;20341;-53
2021/07/09 15:58:15;;;;;;;;;;;;;;;;;;5049080;28;19966;-51
2021/07/09 16:00:41;;;;;;;;;;;;;;;;;;5050181;28;19956;-53
2021/07/09 16:03:08;;;;;;;;;;;;;;;;;;5051389;28;20353;-53
2021/07/09 16:05:34;;;;;;;;;;;;;;;;;;5051384;28;19904;-53
2021/07/09 16:08:00;;;;;;;;;;;;;;;;;;5050814;28;19915;-59
2021/07/09 16:10:26;;;;;;;;;;;;;;;;;;5045519;28;19920;-61
2021/07/09 16:12:52;;;;;;;;;;;;;;;;;;5049300;28;20043;-58
2021/07/09 16:15:21;;;;;;;;;;;;;;;;;;5051397;28;20457;-62
2021/07/09 16:17:47;;;;;;;;;;;;;;;;;;5056092;28;19927;-58
2021/07/09 16:20:13;;;;;;;;;;;;;;;;;;5070075;28;19908;-58
2021/07/09 16:22:39;;;;;;;;;;;;;;;;;;5084419;28;20387;-58
2021/07/09 16:25:05;;;;;;;;;;;;;;;;;;5070710;28;20245;-57
2021/07/09 16:27:31;;;;;;;;;;;;;;;;;;5071742;28;19948;-57
2021/07/09 16:29:57;;;;;;;;;;;;;;;;;;5070465;28;20376;-59
2021/07/09 16:32:23;;;;;;;;;;;;;;;;;;5070856;28;20336;-59
2021/07/09 16:34:49;;;;;;;;;;;;;;;;;;5063107;28;19905;-58
2021/07/09 16:37:15;;;;;;;;;;;;;;;;;;5079992;28;19911;-58
2021/07/09 16:39:41;;;;;;;;;;;;;;;;;;5052784;28;19905;-59
2021/07/09 16:42:07;;;;;;;;;;;;;;;;;;5070081;28;19963;-57
2021/07/09 16:44:33;;;;;;;;;;;;;;;;;;5070237;28;19908;-59
2021/07/09 16:46:59;;;;;;;;;;;;;;;;;;5070764;28;19905;-59
2021/07/09 16:49:28;;;;;;;;;;;;;;;;;;5070647;28;19913;-57
2021/07/09 16:51:54;;;;;;;;;;;;;;;;;;5070356;28;19909;-55
2021/07/09 16:54:20;;;;;;;;;;;;;;;;;;5069586;28;19927;-55
2021/07/09 16:56:46;;;;;;;;;;;;;;;;;;5051903;28;19970;-58
2021/07/09 16:59:15;;;;;;;;;;;;;;;;;;5070799;28;19994;-59
2021/07/09 17:01:41;;;;;;;;;;;;;;;;;;5069839;28;20050;-59
2021/07/09 17:04:07;;;;;;;;;;;;;;;;;;5069922;28;19948;-57
2021/07/09 17:06:35;;;;;;;;;;;;;;;;;;5070552;28;19911;-58
2021/07/09 17:09:01;;;;;;;;;;;;;;;;;;5052018;28;20007;-52
2021/07/09 17:11:27;;;;;;;;;;;;;;;;;;5070495;28;20678;-56
2021/07/09 17:13:53;;;;;;;;;;;;;;;;;;5068421;28;19999;-55
2021/07/09 17:16:19;;;;;;;;;;;;;;;;;;5070835;28;19999;-58
2021/07/09 17:18:45;;;;;;;;;;;;;;;;;;5061020;28;19970;-54
2021/07/09 17:21:11;;;;;;;;;;;;;;;;;;5052297;28;19909;-56
2021/07/09 17:23:37;;;;;;;;;;;;;;;;;;5050319;28;19986;-56
2021/07/09 17:26:03;;;;;;;;;;;;;;;;;;5050555;28;19963;-51
2021/07/09 17:28:29;;;;;;;;;;;;;;;;;;5051118;28;19973;-53
2021/07/09 17:30:55;;;;;;;;;;;;;;;;;;5045966;28;20349;-53
2021/07/09 17:33:21;;;;;;;;;;;;;;;;;;5049988;28;19909;-54
2021/07/09 17:35:49;;;;;;;;;;;;;;;;;;5048504;28;20218;-54
2021/07/09 17:38:15;;;;;;;;;;;;;;;;;;5047469;28;19952;-53
2021/07/09 17:40:41;;;;;;;;;;;;;;;;;;5049764;28;19939;-55
2021/07/09 17:43:07;;;;;;;;;;;;;;;;;;5049432;28;19992;-54
2021/07/09 17:45:33;;;;;;;;;;;;;;;;;;5050661;28;19944;-46
